Time;durP1;ratioP1;P1;durP2;ratioP2;P2;SDS_P1;SDS_P2;PMS_P1;PMS_P2;Temp;Humidity;BMP_temperature;BMP_pressure;BME280_temperature;BME280_humidity;BME280_pressure;Samples;Min_cycle;Max_cycle;Signal;HPM_P1;HPM_P2
2021/03/07 00:01:08;;;;;;;12.10;7.32;;;;;;;1.00;58.64;95844.25;4889945;29;20076;-81
2021/03/07 00:03:33;;;;;;;14.55;8.05;;;;;;;1.02;58.95;95839.09;4879077;29;20033;-81
2021/03/07 00:05:59;;;;;;;12.07;7.43;;;;;;;0.99;59.56;95841.81;4858996;29;20029;-82
2021/03/07 00:08:24;;;;;;;13.18;8.27;;;;;;;1.00;59.13;95833.25;4876628;29;20033;-81
2021/03/07 00:10:49;;;;;;;13.57;8.85;;;;;;;1.09;59.45;95849.75;4862997;29;20025;-81
2021/03/07 00:13:15;;;;;;;11.55;8.13;;;;;;;0.80;59.80;95808.13;4859834;29;20029;-81
2021/03/07 00:15:40;;;;;;;13.15;8.52;;;;;;;0.98;60.13;95842.72;4844000;29;20045;-81
2021/03/07 00:18:06;;;;;;;11.73;8.85;;;;;;;0.91;59.83;95847.38;4871115;29;20032;-81
2021/03/07 00:20:31;;;;;;;10.38;8.82;;;;;;;0.98;60.11;95845.28;4867725;29;20380;-81
2021/03/07 00:22:57;;;;;;;12.45;8.45;;;;;;;0.95;59.45;95848.00;4896255;29;20041;-81
2021/03/07 00:25:23;;;;;;;13.27;9.82;;;;;;;1.00;59.46;95840.88;4879998;29;20040;-82
2021/03/07 00:27:48;;;;;;;13.07;9.43;;;;;;;0.80;60.52;95834.44;4881088;29;20112;-82
2021/03/07 00:30:15;;;;;;;17.73;9.85;;;;;;;0.73;60.26;95829.78;4868713;29;20032;-82
2021/03/07 00:32:41;;;;;;;13.90;9.95;;;;;;;0.78;60.78;95828.59;4887864;29;20021;-83
2021/03/07 00:35:07;;;;;;;14.00;9.38;;;;;;;0.74;61.18;95833.97;4872949;29;20021;-83
2021/03/07 00:37:33;;;;;;;18.15;10.80;;;;;;;0.67;61.09;95819.97;4887992;29;20119;-82
2021/03/07 00:39:58;;;;;;;11.93;9.40;;;;;;;0.77;60.74;95826.16;4872222;29;20033;-82
2021/03/07 00:42:24;;;;;;;15.27;9.60;;;;;;;0.72;60.85;95831.50;4872040;29;20017;-82
2021/03/07 00:44:49;;;;;;;14.18;9.48;;;;;;;0.82;60.55;95831.78;4887345;29;20044;-82
2021/03/07 01:05:23;;;;;;;12.95;9.45;;;;;;;-0.40;60.06;95648.84;5605953;23;20067;-82
2021/03/07 01:12:59;;;;;;;14.70;9.85;;;;;;;-0.03;61.37;95735.69;5702908;23;20061;-82
2021/03/07 01:15:29;;;;;;;11.75;9.43;;;;;;;-0.57;61.42;95668.41;4887096;29;20059;-83
2021/03/07 01:30:51;;;;;;;9.55;8.23;;;;;;;-1.24;63.28;95612.03;5879360;23;20016;-82
2021/03/07 01:51:23;;;;;;;11.02;9.07;;;;;;;-1.30;65.85;95696.19;5519126;23;20041;-84
2021/03/07 01:53:48;;;;;;;12.55;8.65;;;;;;;-1.44;65.92;95683.38;4888781;29;20064;-83
2021/03/07 01:56:14;;;;;;;13.00;9.35;;;;;;;-1.52;66.59;95677.91;4873592;29;20053;-85
2021/03/07 01:58:41;;;;;;;13.63;10.48;;;;;;;-0.87;67.76;95797.22;4900283;29;20072;-84
2021/03/07 02:01:06;;;;;;;17.50;13.73;;;;;;;-0.97;67.80;95790.13;4873536;29;20037;-84
2021/03/07 02:03:32;;;;;;;26.58;20.80;;;;;;;-1.36;68.55;95770.16;4904854;29;20053;-84
2021/03/07 02:05:57;;;;;;;20.60;15.43;;;;;;;-1.37;68.23;95779.50;4873168;29;20021;-82
2021/03/07 02:08:23;;;;;;;15.10;11.95;;;;;;;-1.22;68.02;95785.53;4888753;29;20078;-82
2021/03/07 02:10:57;;;;;;;9.90;8.73;;;;;;;-1.36;67.90;95777.78;4903913;29;20101;-81
2021/03/07 02:13:34;;;;;;;11.70;8.50;;;;;;;-1.36;68.21;95787.94;4873767;29;20045;-82
2021/03/07 02:16:19;;;;;;;12.02;9.50;;;;;;;-1.44;68.27;95768.00;4904011;29;20021;-84
2021/03/07 02:18:46;;;;;;;13.80;9.75;;;;;;;-1.58;68.92;95772.97;4888252;29;20025;-81
2021/03/07 02:21:15;;;;;;;14.48;9.57;;;;;;;-1.66;69.81;95780.16;4883961;29;20034;-80
2021/03/07 02:24:02;;;;;;;12.85;9.18;;;;;;;-1.69;69.56;95781.13;4870686;29;20039;-79
2021/03/07 02:26:28;;;;;;;12.82;9.50;;;;;;;-1.69;69.70;95787.91;4872442;29;20016;-80
2021/03/07 02:28:54;;;;;;;12.00;9.25;;;;;;;-1.81;70.38;95781.75;4873083;29;20097;-81
2021/03/07 02:31:21;;;;;;;13.15;9.63;;;;;;;-2.10;71.99;95789.13;4887752;29;20017;-81
2021/03/07 02:33:46;;;;;;;15.52;11.93;;;;;;;-2.09;71.52;95780.63;4873073;29;20016;-82
2021/03/07 02:36:16;;;;;;;13.00;10.38;;;;;;;-1.88;71.29;95775.31;4887983;29;20029;-83
2021/03/07 02:38:42;;;;;;;12.45;9.65;;;;;;;-1.93;70.75;95767.13;4887952;29;20040;-84
2021/03/07 02:41:08;;;;;;;10.35;8.60;;;;;;;-1.89;70.63;95783.00;4887711;29;20063;-84
2021/03/07 02:43:39;;;;;;;12.98;8.65;;;;;;;-2.05;70.93;95764.34;4887803;29;20033;-84
2021/03/07 02:46:06;;;;;;;14.13;10.70;;;;;;;-1.94;70.80;95774.81;4903530;29;20094;-83
2021/03/07 02:48:31;;;;;;;14.88;11.85;;;;;;;-2.31;72.69;95775.78;4872773;29;20036;-84
2021/03/07 02:56:50;;;;;;;17.05;9.50;;;;;;;-3.69;72.80;95654.75;5549363;23;20053;-81
2021/03/07 02:59:16;;;;;;;15.68;8.68;;;;;;;-3.59;71.92;95653.41;4851522;29;20022;-81
2021/03/07 03:01:42;;;;;;;12.82;9.10;;;;;;;-3.47;71.33;95630.94;4863280;29;20052;-81
2021/03/07 03:04:08;;;;;;;11.65;8.25;;;;;;;-3.01;71.67;95704.75;4850121;29;20034;-81
2021/03/07 03:06:35;;;;;;;11.43;8.85;;;;;;;-3.10;71.35;95712.78;4864886;29;20113;-81
2021/03/07 03:09:04;;;;;;;11.20;8.52;;;;;;;-3.30;71.54;95646.16;4865305;29;20033;-81
2021/03/07 03:11:35;;;;;;;14.35;9.32;;;;;;;-3.12;71.39;95686.72;4865131;29;20057;-82
2021/03/07 03:14:01;;;;;;;11.95;9.45;;;;;;;-2.59;71.46;95777.94;4850347;29;20021;-82
2021/03/07 03:16:28;;;;;;;15.82;9.90;;;;;;;-3.30;71.29;95673.16;4865939;29;20018;-82
2021/03/07 03:18:54;;;;;;;12.63;9.32;;;;;;;-2.79;70.88;95751.81;4849891;29;20053;-80
2021/03/07 03:21:20;;;;;;;13.20;9.43;;;;;;;-2.72;70.71;95791.19;4848660;29;20030;-81
2021/03/07 03:23:46;;;;;;;13.80;10.50;;;;;;;-3.82;71.41;95637.56;4865334;29;20049;-80
2021/03/07 03:26:12;;;;;;;19.45;12.85;;;;;;;-3.58;71.26;95677.84;4864683;29;20034;-80
2021/03/07 03:28:38;;;;;;;18.52;13.23;;;;;;;-4.13;71.26;95596.00;4865807;29;20372;-84
2021/03/07 03:31:04;;;;;;;22.73;14.48;;;;;;;-3.56;71.98;95714.03;4850921;29;20018;-81
2021/03/07 03:33:30;;;;;;;24.17;16.10;;;;;;;-3.49;71.55;95700.19;4864841;29;20025;-82
2021/03/07 03:35:55;;;;;;;26.30;16.35;;;;;;;-3.92;71.42;95640.56;4861020;29;20121;-81
2021/03/07 03:38:22;;;;;;;21.95;14.55;;;;;;;-3.85;71.32;95652.88;4865848;29;20037;-81
2021/03/07 03:40:53;;;;;;;17.33;11.68;;;;;;;-4.08;71.25;95644.66;4868043;29;20085;-82
2021/03/07 03:43:19;;;;;;;14.85;11.02;;;;;;;-4.64;72.94;95621.78;4850951;29;20040;-80
2021/03/07 03:45:44;;;;;;;14.35;11.15;;;;;;;-4.24;72.89;95658.84;4847482;29;20037;-80
2021/03/07 03:48:16;;;;;;;14.90;9.13;;;;;;;-4.87;72.92;95599.97;4868184;29;20050;-81
2021/03/07 03:50:42;;;;;;;11.15;8.60;;;;;;;-5.17;73.69;95571.78;4868844;29;20026;-82
2021/03/07 03:53:12;;;;;;;10.50;8.88;;;;;;;-5.17;73.43;95573.47;4867027;29;20022;-80
2021/03/07 03:55:39;;;;;;;12.60;9.07;;;;;;;-3.79;73.14;95742.84;4845446;29;20045;-79
2021/03/07 03:58:06;;;;;;;12.15;9.18;;;;;;;-3.63;72.89;95778.44;4832350;29;20057;-79
2021/03/07 04:00:33;;;;;;;9.82;8.77;;;;;;;-3.92;74.00;95787.25;4845115;29;20030;-78
2021/03/07 04:02:58;;;;;;;10.98;9.00;;;;;;;-3.86;73.62;95780.22;4841121;29;20066;-77
2021/03/07 04:05:25;;;;;;;12.85;8.63;;;;;;;-3.82;73.63;95771.59;4842398;29;20059;-78
2021/03/07 04:07:51;;;;;;;11.38;8.15;;;;;;;-3.73;73.11;95780.53;4843197;29;20034;-79
2021/03/07 04:10:17;;;;;;;13.68;9.02;;;;;;;-3.77;72.92;95767.19;4841838;29;20385;-79
2021/03/07 04:12:44;;;;;;;12.00;8.73;;;;;;;-3.93;73.60;95775.47;4842662;29;20138;-78
2021/03/07 04:15:10;;;;;;;12.48;9.38;;;;;;;-4.01;72.98;95778.31;4851651;29;20030;-79
2021/03/07 04:17:35;;;;;;;13.77;10.02;;;;;;;-4.54;74.06;95740.06;4841977;29;20034;-76
2021/03/07 04:20:01;;;;;;;13.20;8.75;;;;;;;-4.35;74.75;95768.78;4840590;29;20090;-76
2021/03/07 04:22:27;;;;;;;12.07;8.55;;;;;;;-4.77;74.85;95735.09;4839066;29;20112;-76
2021/03/07 04:24:52;;;;;;;12.70;9.70;;;;;;;-4.47;74.69;95771.78;4840807;29;20042;-77
2021/03/07 04:27:18;;;;;;;13.30;8.73;;;;;;;-4.27;74.57;95778.59;4839162;29;20114;-76
2021/03/07 04:29:44;;;;;;;12.38;8.52;;;;;;;-4.36;74.37;95772.16;4839938;29;20532;-76
2021/03/07 04:32:10;;;;;;;13.90;9.02;;;;;;;-4.29;74.21;95783.69;4838643;29;20030;-76
2021/03/07 04:34:35;;;;;;;10.23;8.55;;;;;;;-4.55;74.53;95730.84;4840764;29;20066;-76
2021/03/07 04:37:01;;;;;;;13.85;9.90;;;;;;;-4.29;74.34;95775.28;4824578;29;20124;-75
2021/03/07 04:39:27;;;;;;;13.13;9.45;;;;;;;-4.34;74.24;95774.66;4823848;29;20642;-75
2021/03/07 04:41:52;;;;;;;11.45;8.80;;;;;;;-4.36;74.37;95781.44;4839872;29;20042;-76
2021/03/07 04:44:18;;;;;;;11.85;9.27;;;;;;;-4.40;74.22;95772.38;4838814;29;20481;-75
2021/03/07 04:46:44;;;;;;;12.70;8.70;;;;;;;-4.44;74.28;95778.41;4839203;29;20033;-75
2021/03/07 04:49:09;;;;;;;11.52;9.05;;;;;;;-4.53;74.39;95763.63;4823704;29;20547;-75
2021/03/07 04:51:35;;;;;;;14.80;10.02;;;;;;;-4.38;74.42;95780.69;4824303;29;20061;-75
2021/03/07 04:54:00;;;;;;;13.65;10.27;;;;;;;-4.58;74.62;95768.03;4839154;29;20049;-75
2021/03/07 04:56:29;;;;;;;14.10;9.80;;;;;;;-4.50;74.57;95768.56;4839690;29;20061;-74
2021/03/07 04:58:55;;;;;;;15.13;9.52;;;;;;;-4.33;74.04;95767.00;4822381;29;20037;-76
2021/03/07 05:01:20;;;;;;;17.75;11.52;;;;;;;-4.23;73.83;95772.50;4839029;29;20034;-75
2021/03/07 05:03:46;;;;;;;30.50;17.40;;;;;;;-4.30;73.58;95771.09;4838687;29;20487;-75
2021/03/07 05:06:12;;;;;;;17.08;12.40;;;;;;;-4.66;74.03;95732.97;4838608;29;20030;-74
2021/03/07 05:08:38;;;;;;;13.20;10.85;;;;;;;-4.32;73.94;95781.28;4839098;29;20030;-76
2021/03/07 05:11:03;;;;;;;13.85;11.13;;;;;;;-4.37;73.97;95795.81;4838093;29;20034;-75
2021/03/07 05:13:29;;;;;;;15.93;9.05;;;;;;;-4.53;74.21;95754.34;4824542;29;20150;-75
2021/03/07 05:15:54;;;;;;;18.92;13.02;;;;;;;-4.22;73.87;95788.50;4838822;29;20387;-76
2021/03/07 05:18:20;;;;;;;48.03;30.77;;;;;;;-4.11;73.09;95787.16;4839602;29;20034;-76
2021/03/07 05:20:45;;;;;;;18.50;14.70;;;;;;;-4.32;73.39;95761.06;4839364;29;20069;-75
2021/03/07 05:23:11;;;;;;;13.70;12.25;;;;;;;-4.28;74.32;95779.44;4839982;29;20057;-75
2021/03/07 05:25:36;;;;;;;15.65;12.20;;;;;;;-3.94;73.21;95789.00;4838705;29;20500;-75
2021/03/07 05:28:02;;;;;;;22.17;13.10;;;;;;;-3.65;72.64;95785.25;4838816;29;20034;-75
2021/03/07 05:30:28;;;;;;;42.67;26.65;;;;;;;-3.29;71.45;95788.75;4823230;29;20441;-75
2021/03/07 05:32:53;;;;;;;37.67;23.73;;;;;;;-3.02;70.16;95787.53;4838407;29;20034;-75
2021/03/07 05:35:20;;;;;;;16.52;12.07;;;;;;;-2.54;68.69;95783.63;4838430;29;20034;-75
2021/03/07 05:37:46;;;;;;;13.40;10.10;;;;;;;-1.90;66.20;95777.13;4838085;29;20063;-75
2021/03/07 05:40:11;;;;;;;11.98;9.43;;;;;;;-0.57;63.18;95777.75;4843623;29;20127;-75
2021/03/07 05:42:37;;;;;;;12.50;10.75;;;;;;;0.51;58.55;95781.81;4842132;29;20021;-75
2021/03/07 05:45:03;;;;;;;15.45;12.27;;;;;;;2.48;53.16;95769.38;4844851;29;20034;-76
2021/03/07 05:47:28;;;;;;;15.38;13.38;;;;;;;3.31;50.84;95760.31;4845435;29;20089;-76
2021/03/07 05:49:54;;;;;;;21.08;14.10;;;;;;;1.09;53.59;95763.03;4846576;29;20448;-76
2021/03/07 05:52:23;;;;;;;11.15;9.93;;;;;;;0.54;58.17;95776.53;4844551;29;20030;-78
2021/03/07 05:54:52;;;;;;;11.40;9.52;;;;;;;-0.16;58.78;95787.41;4829444;29;20042;-76
2021/03/07 05:57:21;;;;;;;12.50;9.55;;;;;;;-1.14;61.82;95784.22;4824795;29;20133;-76
2021/03/07 05:59:47;;;;;;;12.43;8.90;;;;;;;-0.98;61.96;95780.88;4841503;29;20037;-77
2021/03/07 06:02:14;;;;;;;12.63;10.52;;;;;;;-0.56;60.70;95783.66;4843285;29;20030;-77
2021/03/07 06:04:40;;;;;;;15.18;12.15;;;;;;;-0.90;65.01;95791.47;4840781;29;20101;-76
2021/03/07 06:07:05;;;;;;;11.85;9.55;;;;;;;-0.39;61.61;95772.56;4822992;29;20543;-76
2021/03/07 06:09:31;;;;;;;13.40;10.63;;;;;;;1.66;56.63;95763.72;4824239;29;20030;-76
2021/03/07 06:11:57;;;;;;;12.40;10.43;;;;;;;3.46;52.84;95769.47;4839970;29;20082;-76
2021/03/07 06:14:22;;;;;;;10.80;9.57;;;;;;;8.01;42.82;95760.53;4843935;29;20074;-76
2021/03/07 06:17:17;;;;;;;10.85;9.38;;;;;;;10.34;36.00;95761.19;4840459;29;20129;-76
2021/03/07 06:20:03;;;;;;;17.90;14.02;;;;;;;10.46;33.93;95758.22;4817071;29;20519;-77
2021/03/07 06:22:29;;;;;;;12.20;10.57;;;;;;;10.27;35.01;95750.63;4837365;29;20041;-77
2021/03/07 06:24:55;;;;;;;10.43;9.55;;;;;;;9.80;35.45;95751.75;4820801;29;20118;-77
2021/03/07 06:27:20;;;;;;;10.48;9.50;;;;;;;9.07;35.11;95761.22;4822291;29;20485;-76
2021/03/07 06:30:05;;;;;;;12.10;10.90;;;;;;;6.64;39.30;95747.50;4835793;29;20034;-76
2021/03/07 06:32:35;;;;;;;11.00;9.90;;;;;;;0.83;54.67;95762.06;4824572;29;20037;-78
2021/03/07 06:35:01;;;;;;;;;;;;;;;4.01;48.89;95756.94;4842463;29;20030;-78
2021/03/07 06:37:26;;;;;;;15.43;10.52;;;;;;;0.65;55.70;95763.16;4841128;29;19924;-78
2021/03/07 06:39:52;;;;;;;14.00;11.07;;;;;;;1.08;57.22;95746.94;4825559;29;20033;-77
2021/03/07 06:42:18;;;;;;;12.65;11.35;;;;;;;1.66;55.26;95759.44;4825008;29;20112;-77
2021/03/07 06:45:03;;;;;;;12.38;11.07;;;;;;;0.48;58.33;95772.59;4825561;29;20094;-77
2021/03/07 06:47:28;;;;;;;14.32;11.80;;;;;;;-0.47;62.83;95775.53;4837518;29;20037;-76
2021/03/07 06:50:26;;;;;;;17.63;11.38;;;;;;;-0.48;61.85;95710.28;4840439;29;20033;-76
2021/03/07 06:52:56;;;;;;;19.80;16.17;;;;;;;0.43;60.35;95768.69;4819954;29;20038;-76
2021/03/07 06:55:26;;;;;;;23.40;16.85;;;;;;;-0.96;64.78;95774.78;4840787;29;20507;-75
2021/03/07 06:57:52;;;;;;;27.55;19.48;;;;;;;-0.34;64.16;95773.94;4838481;29;20054;-76
2021/03/07 07:00:34;;;;;;;26.10;18.65;;;;;;;0.43;61.01;95766.16;4839863;29;20098;-76
2021/03/07 07:03:12;;;;;;;23.98;18.48;;;;;;;5.29;50.42;95756.63;4840287;29;20026;-76
2021/03/07 07:05:39;;;;;;;23.00;16.98;;;;;;;2.93;53.07;95766.31;4838339;29;20504;-76
2021/03/07 07:08:04;;;;;;;18.25;16.23;;;;;;;2.67;54.29;95757.00;4840422;29;20030;-78
2021/03/07 07:10:30;;;;;;;17.85;15.05;;;;;;;5.01;49.13;95761.44;4830599;29;20094;-76
2021/03/07 07:13:04;;;;;;;19.10;16.85;;;;;;;9.83;39.54;95760.03;4833211;29;20061;-76
2021/03/07 07:15:30;;;;;;;18.00;16.30;;;;;;;9.31;37.59;95747.81;4828757;29;20435;-75
2021/03/07 07:17:56;;;;;;;17.80;15.95;;;;;;;13.51;31.72;95744.44;4839198;29;20042;-76
2021/03/07 07:20:21;;;;;;;18.73;16.73;;;;;;;10.29;33.67;95733.16;4851207;29;20037;-78
2021/03/07 07:22:47;;;;;;;16.17;14.57;;;;;;;4.92;43.67;95739.00;4860626;29;20472;-77
2021/03/07 07:25:13;;;;;;;12.43;11.23;;;;;;;9.82;36.45;95744.66;4846836;29;20033;-77
2021/03/07 07:27:38;;;;;;;13.40;12.20;;;;;;;14.10;28.33;95736.00;4845034;29;20038;-74
2021/03/07 07:30:07;;;;;;;11.02;9.90;;;;;;;9.20;34.12;95735.06;4844008;29;20025;-75
2021/03/07 07:32:41;;;;;;;12.75;10.52;;;;;;;7.50;39.71;95739.28;4862549;29;20053;-77
2021/03/07 07:35:09;;;;;;;10.07;9.18;;;;;;;5.92;39.90;95747.38;4861475;29;20049;-76
2021/03/07 07:37:47;;;;;;;10.35;8.52;;;;;;;5.79;41.56;95741.56;4847182;29;20472;-77
2021/03/07 07:40:13;;;;;;;11.70;10.48;;;;;;;13.66;28.48;95721.94;4861313;29;20034;-74
2021/03/07 07:42:38;;;;;;;10.13;9.13;;;;;;;12.78;28.66;95715.22;4843895;29;20132;-76
2021/03/07 07:45:10;;;;;;;8.25;7.55;;;;;;;4.98;38.30;95729.09;4860663;29;20578;-76
2021/03/07 07:47:42;;;;;;;7.50;6.90;;;;;;;12.96;27.99;95714.03;4861475;29;20037;-74
2021/03/07 07:50:08;;;;;;;10.77;8.80;;;;;;;7.41;35.62;95725.44;4859813;29;20503;-74
2021/03/07 07:52:34;;;;;;;10.50;9.25;;;;;;;5.11;42.13;95716.97;4844541;29;20829;-73
2021/03/07 07:55:05;;;;;;;13.93;9.02;;;;;;;5.21;45.11;95723.03;4859777;29;20066;-74
2021/03/07 07:57:31;;;;;;;9.15;8.25;;;;;;;6.49;39.73;95710.97;4840413;29;20099;-77
2021/03/07 07:59:56;;;;;;;9.43;8.60;;;;;;;4.39;44.75;95720.81;4859796;29;20041;-76
2021/03/07 08:02:43;;;;;;;8.55;7.75;;;;;;;5.62;43.50;95717.19;4833430;29;20040;-74
2021/03/07 08:05:35;;;;;;;10.93;6.97;;;;;;;5.94;38.48;95708.72;4840484;29;20042;-76
2021/03/07 08:08:07;;;;;;;7.85;6.60;;;;;;;6.57;39.69;95703.44;4836454;29;20508;-77
2021/03/07 08:10:39;;;;;;;6.45;5.85;;;;;;;3.44;42.17;95712.44;4842713;29;20492;-74
2021/03/07 08:13:05;;;;;;;7.15;6.45;;;;;;;4.85;42.95;95707.09;4843662;29;20090;-75
2021/03/07 08:15:31;;;;;;;6.63;5.90;;;;;;;6.01;39.74;95704.69;4828911;29;20025;-77
2021/03/07 08:17:57;;;;;;;7.50;6.78;;;;;;;5.76;38.65;95691.22;4844278;29;20689;-77
2021/03/07 08:20:46;;;;;;;8.07;7.28;;;;;;;6.98;40.38;95693.97;4846007;29;20034;-77
2021/03/07 08:23:13;;;;;;;7.63;6.53;;;;;;;6.75;38.64;95691.59;4832782;29;20044;-77
2021/03/07 08:25:51;;;;;;;9.20;8.18;;;;;;;6.57;38.68;95688.00;4842889;29;20040;-77
2021/03/07 08:28:25;;;;;;;8.75;7.85;;;;;;;6.13;41.87;95683.16;4844655;29;20121;-79
2021/03/07 08:31:07;;;;;;;8.65;7.85;;;;;;;7.78;39.13;95671.47;4843637;29;20030;-79
2021/03/07 08:33:35;;;;;;;8.02;7.22;;;;;;;6.44;44.86;95676.28;4843339;29;20171;-76
2021/03/07 08:36:20;;;;;;;7.35;6.63;;;;;;;7.95;38.86;95655.34;4841365;29;20041;-78
2021/03/07 08:38:51;;;;;;;9.48;8.48;;;;;;;3.46;46.96;95673.03;4846030;29;20067;-78
2021/03/07 08:41:37;;;;;;;10.18;8.32;;;;;;;5.54;43.72;95663.06;4843376;29;20029;-75
2021/03/07 08:44:15;;;;;;;8.65;7.75;;;;;;;8.07;38.81;95646.50;4837035;29;20042;-77
2021/03/07 08:46:40;;;;;;;8.73;7.93;;;;;;;8.90;37.95;95646.53;4821586;29;20106;-79
2021/03/07 08:49:10;;;;;;;10.73;8.43;;;;;;;7.83;37.36;95640.97;4838930;29;20030;-79
2021/03/07 08:51:36;;;;;;;8.98;8.18;;;;;;;9.18;37.81;95626.69;4829754;29;20065;-79
2021/03/07 08:54:06;;;;;;;8.52;7.72;;;;;;;6.60;41.11;95633.72;4846054;29;20034;-79
2021/03/07 08:56:32;;;;;;;8.48;7.68;;;;;;;6.24;42.25;95639.34;4841184;29;20058;-80
2021/03/07 08:58:57;;;;;;;10.25;8.27;;;;;;;9.84;37.29;95621.97;4822830;29;20488;-80
2021/03/07 09:01:24;;;;;;;8.38;7.55;;;;;;;8.40;39.13;95622.00;4822870;29;20110;-78
2021/03/07 09:03:56;;;;;;;9.40;7.95;;;;;;;9.87;37.31;95611.31;4820714;29;20041;-77
2021/03/07 09:06:26;;;;;;;8.32;7.50;;;;;;;7.47;41.39;95616.69;4837659;29;20543;-80
2021/03/07 09:09:00;;;;;;;;;;;;;;;6.82;42.57;95612.91;4827082;29;20634;-79
2021/03/07 09:11:25;;;;;;;8.63;7.72;;;;;;;6.93;41.48;95611.19;4839196;29;19969;-80
2021/03/07 09:13:51;;;;;;;9.20;8.40;;;;;;;8.98;40.57;95600.16;4839363;29;20404;-79
2021/03/07 09:16:16;;;;;;;9.02;8.13;;;;;;;9.50;38.35;95590.00;4685308;29;20072;-74
2021/03/07 09:18:42;;;;;;;9.80;8.90;;;;;;;5.43;44.68;95592.91;4591697;29;21639;-77
2021/03/07 09:21:11;;;;;;;10.05;9.15;;;;;;;8.61;41.08;95576.13;4611562;29;20100;-76
2021/03/07 09:23:40;;;;;;;10.05;9.15;;;;;;;10.62;37.81;95581.41;4763933;29;20046;-75
2021/03/07 09:26:09;;;;;;;8.52;7.82;;;;;;;10.66;35.96;95567.16;4816313;29;20035;-76
2021/03/07 09:28:39;;;;;;;9.77;8.77;;;;;;;6.82;42.29;95578.63;4817796;29;20030;-75
2021/03/07 09:31:12;;;;;;;10.57;8.68;;;;;;;9.84;38.65;95561.66;4801482;29;20081;-74
2021/03/07 09:33:38;;;;;;;9.68;8.77;;;;;;;10.19;38.01;95555.59;4786741;29;20023;-74
2021/03/07 09:36:05;;;;;;;9.82;9.05;;;;;;;8.90;38.97;95555.31;4820113;29;20137;-76
2021/03/07 09:38:42;;;;;;;9.52;8.70;;;;;;;8.29;40.23;95555.88;4819523;29;20118;-75
2021/03/07 09:41:09;;;;;;;9.98;9.07;;;;;;;8.68;39.76;95553.13;4818660;29;20030;-74
2021/03/07 09:43:36;;;;;;;10.07;9.18;;;;;;;8.52;39.41;95543.44;4817133;29;20030;-74
2021/03/07 09:46:01;;;;;;;9.40;8.50;;;;;;;7.34;42.06;95539.66;4802742;29;20034;-74
2021/03/07 09:48:30;;;;;;;9.63;8.73;;;;;;;7.67;42.00;95535.84;4801642;29;20038;-76
2021/03/07 09:50:55;;;;;;;8.93;8.25;;;;;;;8.85;40.37;95542.84;4815494;29;20046;-73
2021/03/07 09:53:21;;;;;;;8.88;8.25;;;;;;;10.69;37.47;95522.00;4809317;29;20042;-73
2021/03/07 09:55:46;;;;;;;9.50;8.30;;;;;;;10.16;39.78;95532.59;4816961;29;20584;-74
2021/03/07 09:58:12;;;;;;;8.30;7.60;;;;;;;8.18;42.20;95527.69;4784853;29;1028066;-74
2021/03/07 10:00:40;;;;;;;8.27;7.47;;;;;;;8.29;43.31;95524.13;4817693;29;20090;-76
2021/03/07 10:03:25;;;;;;;7.53;6.35;;;;;;;8.51;45.23;95512.63;4819915;29;20074;-75
2021/03/07 10:06:03;;;;;;;8.95;8.15;;;;;;;8.37;41.96;95521.66;4821915;29;20030;-76
2021/03/07 10:08:31;;;;;;;12.38;8.95;;;;;;;10.21;40.84;95512.28;4837053;29;20464;-75
2021/03/07 10:11:22;;;;;;;6.93;6.35;;;;;;;8.90;42.01;95507.06;4836377;29;20030;-74
2021/03/07 10:14:04;;;;;;;5.95;5.55;;;;;;;9.78;40.69;95503.59;4820640;29;20097;-74
2021/03/07 10:16:32;;;;;;;6.38;5.97;;;;;;;6.88;45.73;95501.69;4820899;29;20030;-73
2021/03/07 10:19:15;;;;;;;8.35;5.90;;;;;;;6.92;44.67;95493.69;4821135;29;20030;-72
2021/03/07 10:21:41;;;;;;;6.93;6.32;;;;;;;7.20;45.24;95490.31;4836666;29;20113;-73
2021/03/07 10:24:11;;;;;;;8.98;7.88;;;;;;;6.71;45.99;95494.63;4806376;29;20428;-72
2021/03/07 10:26:36;;;;;;;8.60;6.03;;;;;;;7.77;43.78;95472.16;4820231;29;20040;-73
2021/03/07 10:29:21;;;;;;;6.60;6.00;;;;;;;9.59;40.69;95475.34;4821254;29;20041;-74
2021/03/07 10:32:13;;;;;;;6.68;5.93;;;;;;;7.34;43.77;95464.94;4833537;29;20125;-74
2021/03/07 10:34:40;;;;;;;6.72;6.13;;;;;;;7.61;43.88;95464.19;4815960;29;20034;-74
2021/03/07 10:37:06;;;;;;;5.68;5.18;;;;;;;8.09;41.96;95463.22;4802323;29;20042;-74
2021/03/07 10:39:32;;;;;;;5.95;5.38;;;;;;;7.36;41.61;95464.78;4801462;29;20035;-74
2021/03/07 10:42:04;;;;;;;6.65;6.03;;;;;;;7.89;43.27;95454.75;4803283;29;20099;-74
2021/03/07 10:44:29;;;;;;;7.68;5.70;;;;;;;8.31;41.63;95406.94;4819658;29;20042;-75
2021/03/07 10:46:55;;;;;;;6.28;5.75;;;;;;;9.17;40.76;95445.94;4803771;29;20489;-77
2021/03/07 10:49:20;;;;;;;6.63;6.00;;;;;;;9.56;40.21;95433.44;4816274;29;20511;-75
2021/03/07 10:51:45;;;;;;;6.68;6.07;;;;;;;10.29;38.79;95430.28;4801642;29;20034;-74
2021/03/07 10:54:11;;;;;;;6.47;5.88;;;;;;;10.00;37.40;95425.44;4800797;29;20026;-75
2021/03/07 10:56:38;;;;;;;7.00;5.88;;;;;;;9.64;39.11;95415.38;4800176;29;20906;-75
2021/03/07 10:59:04;;;;;;;6.88;5.00;;;;;;;9.11;38.28;95406.03;4801682;29;20090;-75
2021/03/07 11:01:29;;;;;;;6.32;5.82;;;;;;;7.76;42.49;95405.28;4804876;29;20524;-73
2021/03/07 11:03:55;;;;;;;8.52;7.82;;;;;;;8.28;42.85;95401.25;4821295;29;20041;-76
2021/03/07 11:06:20;;;;;;;8.23;6.00;;;;;;;7.37;42.87;95395.13;4822200;29;20022;-75
2021/03/07 11:08:47;;;;;;;7.63;6.82;;;;;;;6.92;42.85;95358.06;4822156;29;20037;-73
2021/03/07 11:11:12;;;;;;;6.85;6.15;;;;;;;7.68;42.35;95385.34;4820147;29;20034;-73
2021/03/07 11:13:38;;;;;;;6.85;6.15;;;;;;;7.20;43.53;95374.41;4820613;29;20038;-72
2021/03/07 11:16:03;;;;;;;6.60;6.00;;;;;;;7.22;44.82;95377.66;4820245;29;20042;-75
2021/03/07 11:18:29;;;;;;;7.20;6.60;;;;;;;8.46;42.28;95369.31;4821288;29;20069;-76
2021/03/07 11:20:55;;;;;;;10.32;9.32;;;;;;;8.73;42.05;95373.56;4821738;29;20487;-77
2021/03/07 11:23:21;;;;;;;11.55;9.25;;;;;;;9.63;41.62;95364.66;4819602;29;20056;-75
2021/03/07 11:25:46;;;;;;;6.53;6.00;;;;;;;8.76;39.73;95357.81;4820719;29;20492;-74
2021/03/07 11:28:12;;;;;;;6.10;5.60;;;;;;;8.66;39.99;95345.94;4820089;29;20049;-77
2021/03/07 11:30:37;;;;;;;6.57;5.30;;;;;;;7.99;42.29;95351.56;4820358;29;20037;-74
2021/03/07 11:33:03;;;;;;;7.63;6.82;;;;;;;7.78;42.43;95326.84;4819673;29;20034;-72
2021/03/07 11:35:28;;;;;;;7.88;7.03;;;;;;;7.59;42.59;95332.09;4835321;29;20037;-73
2021/03/07 11:37:56;;;;;;;7.07;6.35;;;;;;;8.15;42.64;95324.19;4820111;29;20030;-74
2021/03/07 11:40:21;;;;;;;8.02;7.18;;;;;;;8.61;41.39;95328.31;4819810;29;20122;-75
2021/03/07 11:42:47;;;;;;;7.30;6.60;;;;;;;8.08;42.63;95314.56;4837312;29;20496;-77
2021/03/07 11:45:12;;;;;;;6.72;6.00;;;;;;;8.06;41.95;95325.03;4819118;29;20034;-74
2021/03/07 11:47:38;;;;;;;6.75;6.15;;;;;;;8.00;42.39;95320.44;4821992;29;20601;-75
2021/03/07 11:50:04;;;;;;;6.93;6.32;;;;;;;8.92;41.72;95314.03;4819542;29;20065;-77
2021/03/07 11:52:30;;;;;;;7.13;5.93;;;;;;;9.59;40.82;95302.09;4820300;29;20068;-77
2021/03/07 11:54:55;;;;;;;6.25;5.75;;;;;;;8.63;39.21;95279.13;4819882;29;20034;-74
2021/03/07 11:57:21;;;;;;;6.10;5.43;;;;;;;7.78;41.42;95290.75;4822433;29;20432;-74
2021/03/07 11:59:46;;;;;;;7.07;6.20;;;;;;;8.36;41.28;95291.16;4839017;29;20523;-74
2021/03/07 12:02:12;;;;;;;6.47;5.97;;;;;;;7.25;42.78;95282.09;4824316;29;20482;-76
2021/03/07 12:04:37;;;;;;;6.72;5.72;;;;;;;7.97;42.72;95279.50;4829023;29;20408;-76
2021/03/07 12:07:03;;;;;;;8.88;6.35;;;;;;;7.07;42.64;95281.19;4827341;29;20034;-77
2021/03/07 12:09:28;;;;;;;6.38;5.88;;;;;;;7.06;42.24;95271.88;4826942;29;20037;-77
2021/03/07 12:11:54;;;;;;;6.90;6.22;;;;;;;7.47;42.18;95265.44;4828887;29;20074;-76
2021/03/07 12:14:19;;;;;;;5.90;5.40;;;;;;;7.64;43.29;95257.72;4830684;29;20037;-77
2021/03/07 12:16:45;;;;;;;5.70;5.20;;;;;;;8.63;40.74;95253.31;4840595;29;20042;-76
2021/03/07 12:19:10;;;;;;;7.68;6.97;;;;;;;7.58;41.72;95252.38;4840832;29;20045;-76
2021/03/07 12:21:36;;;;;;;6.10;5.60;;;;;;;8.25;42.62;95247.50;4825656;29;20508;-76
2021/03/07 12:24:01;;;;;;;7.45;5.75;;;;;;;8.08;41.50;95245.75;4826902;29;20062;-76
2021/03/07 12:26:27;;;;;;;5.93;5.35;;;;;;;9.43;40.18;95235.63;4842142;29;20117;-76
2021/03/07 12:28:52;;;;;;;6.93;6.07;;;;;;;8.29;42.74;95237.72;4826125;29;20464;-75
2021/03/07 12:31:18;;;;;;;7.25;6.55;;;;;;;9.29;40.38;95227.66;4825537;29;20030;-76
2021/03/07 12:33:43;;;;;;;7.03;6.32;;;;;;;8.82;40.36;95227.28;4838879;29;20496;-76
2021/03/07 12:36:09;;;;;;;6.95;6.25;;;;;;;8.00;42.28;95226.81;4838400;29;20041;-75